Corpus Christi, TX

1:24 AM CDT on May 27, 2017 (GMT -0500)
Harbor Village | | Change Station

Elev 26 ft 27.69 °N, 97.32 °W | Updated 36 seconds ago

Overcast
Overcast
80.5 °F
Feels Like 86 °F
N
12.0
Wind Variable Wind from SSE

Today
High -- | Low -- °F
--% Chance of Precip.
Yesterday
High -- | Low -- °F
Precip. -- in
Pressure 29.88 in
Visibility 7.0 miles
Clouds Overcast 800 ft
Heat Index 86 °F
Dew Point 74 °F
Humidity 83%
Rainfall 0.00 in
Snow Depth Not available.
6:35 AM 8:18 PM
Waxing Crescent, 3% visible
METAR KNGP 270556Z AUTO 15018G22KT 7SM OVC008 28/26 A2988 RMK AO2 CIG 007V012 SLP117 T02780261 10294 20278 403220267 51007 PWINO
Pressure 29.88 in
Visibility 7.0 miles
Clouds Overcast 800 ft
Heat Index 86 °F
Dew Point 74 °F
Humidity 83%
Rainfall 0.00 in
Snow Depth Not available.
6:35 AM 8:18 PM
Waxing Crescent, 3% visible
METAR KNGP 270556Z AUTO 15018G22KT 7SM OVC008 28/26 A2988 RMK AO2 CIG 007V012 SLP117 T02780261 10294 20278 403220267 51007 PWINO

Get Severe Weather Alerts

Thanks for signing up!

Be on the lookout for a verification email in your inbox.

You'll start receiving the daily forecast at 6 AM.

×

10-Day Weather Forecast

Almanac

Astronomy

May. 27, 2017 Rise Set
Actual Time
Civil Twilight
Nautical Twilight
Astronomical Twilight
Moon
Length of Visible Light
Length of Day
Tomorrow will be .
, % of the Moon is Illuminated

Today's Extremes

State Highs State Lows

Community

WunderPhotos

Category 6

Welcome to Category 6. This is the collective home for Weather Underground's featured writeups by Dr. Jeff Masters (right), Bob Henson (left), Chris Burt, and other regular contributors.

Nearby

Air Quality

  Air Quality AQ Index Pollutant
Not available.

Snow Depth

Station Depth Elevation

Earthquake Activity

City Distance Mag. Time & Date
Minimum magnitude displayed is 2.5.

Coastal Water Temperatures

Place Temperature

Stations

Nearby Weather Stations

Station Location Temp. Windchill Dew Point Humidity Wind Precip. Elev Updated Type
                   

Watches & Warnings

There are currently no watches in effect.